Time;durP1;ratioP1;P1;durP2;ratioP2;P2;SDS_P1;SDS_P2;PMS_P1;PMS_P2;Temp;Humidity;BMP_temperature;BMP_pressure;BME280_temperature;BME280_humidity;BME280_pressure;Samples;Min_cycle;Max_cycle;Signal;HPM_P1;HPM_P2
2022/08/04 00:00:20;;;;;;;5.95;3.83;;;;;;;18.57;66.66;98495.66;4201521;28;21834;-71
2022/08/04 00:02:31;;;;;;;5.43;3.78;;;;;;;18.52;66.48;98496.13;4201771;28;20048;-72
2022/08/04 00:04:34;;;;;;;4.20;3.80;;;;;;;18.46;67.24;98492.28;4201684;28;20391;-71
2022/08/04 00:07:04;;;;;;;4.38;3.78;;;;;;;18.41;67.67;98495.56;4203649;28;20135;-71
2022/08/04 00:09:16;;;;;;;8.82;4.07;;;;;;;18.36;67.87;98491.25;4201327;28;20044;-71
2022/08/04 00:11:22;;;;;;;6.05;3.70;;;;;;;18.32;67.80;98490.53;4202438;28;20052;-71
2022/08/04 00:13:25;;;;;;;6.55;3.80;;;;;;;18.27;68.96;98496.63;4201371;28;20514;-71
2022/08/04 00:15:26;;;;;;;7.57;3.85;;;;;;;18.27;69.02;98493.03;4202644;28;20079;-72
2022/08/04 00:17:47;;;;;;;7.22;4.18;;;;;;;18.29;67.91;98490.59;4202039;28;20411;-71
2022/08/04 00:19:52;;;;;;;11.98;4.20;;;;;;;18.26;68.44;98495.06;4202380;28;20050;-71
2022/08/04 00:21:59;;;;;;;6.30;4.35;;;;;;;18.23;68.65;98496.72;4200781;28;20052;-71
2022/08/04 00:24:01;;;;;;;6.07;4.10;;;;;;;18.17;68.88;98487.22;4203602;28;20059;-71
2022/08/04 00:26:02;;;;;;;5.38;4.10;;;;;;;18.13;69.12;98486.50;4201823;28;20654;-72
2022/08/04 00:28:03;;;;;;;4.15;3.70;;;;;;;18.14;68.51;98495.69;4201484;28;20407;-72
2022/08/04 00:30:05;;;;;;;5.43;3.90;;;;;;;18.11;68.04;98490.94;4201716;28;20043;-71
2022/08/04 00:32:07;;;;;;;4.18;3.78;;;;;;;18.12;68.18;98490.53;4201393;28;20024;-71
2022/08/04 00:34:11;;;;;;;5.57;4.30;;;;;;;18.08;68.27;98494.59;4201620;28;20383;-71
2022/08/04 00:36:12;;;;;;;4.57;4.18;;;;;;;18.02;68.55;98487.91;4201387;28;20074;-71
2022/08/04 00:38:18;;;;;;;5.40;4.03;;;;;;;17.95;69.00;98481.22;4202896;28;20448;-71
2022/08/04 00:40:40;;;;;;;5.50;3.97;;;;;;;17.91;69.31;98485.31;4203044;28;20079;-71
2022/08/04 00:42:48;;;;;;;8.02;4.60;;;;;;;17.85;70.02;98487.78;4200533;28;20476;-71
2022/08/04 00:45:25;;;;;;;7.90;4.35;;;;;;;17.84;69.98;98499.41;4202530;28;20127;-71
2022/08/04 00:47:31;;;;;;;5.90;3.88;;;;;;;17.81;69.87;98492.69;4202022;28;20234;-71
2022/08/04 00:49:41;;;;;;;7.78;4.78;;;;;;;17.76;70.39;98493.16;4201139;28;20040;-71
2022/08/04 00:51:48;;;;;;;5.55;4.13;;;;;;;17.69;70.24;98484.84;4201208;28;20044;-71
2022/08/04 00:54:25;;;;;;;8.45;5.47;;;;;;;17.67;70.46;98492.88;4201261;28;20096;-71
2022/08/04 00:57:00;;;;;;;10.23;4.30;;;;;;;17.60;70.29;98484.59;4201965;28;20062;-71
2022/08/04 00:59:10;;;;;;;4.72;4.30;;;;;;;17.54;70.78;98497.47;4200528;28;20515;-71
2022/08/04 01:01:27;;;;;;;6.18;3.85;;;;;;;17.46;71.14;98490.41;4202571;28;20118;-71
2022/08/04 01:03:48;;;;;;;6.22;4.38;;;;;;;17.45;71.23;98489.63;4202386;28;20051;-71
2022/08/04 01:06:04;;;;;;;6.60;4.20;;;;;;;17.38;71.44;98487.75;4200297;28;20036;-71
2022/08/04 01:08:23;;;;;;;5.82;4.05;;;;;;;17.34;70.90;98491.81;4201360;28;20046;-71
2022/08/04 01:10:39;;;;;;;8.02;5.13;;;;;;;17.33;70.59;98487.44;4202300;28;20123;-71
2022/08/04 01:12:43;;;;;;;4.75;4.00;;;;;;;17.28;70.17;98485.09;4203102;28;20048;-71
2022/08/04 01:15:28;;;;;;;7.32;4.45;;;;;;;17.26;70.04;98485.53;4201813;28;20056;-71
2022/08/04 01:17:34;;;;;;;4.80;4.30;;;;;;;17.21;69.92;98494.41;4199290;28;20044;-71
2022/08/04 01:19:53;;;;;;;8.25;4.35;;;;;;;17.20;69.55;98490.00;4202140;28;20480;-71
2022/08/04 01:22:02;;;;;;;7.95;4.20;;;;;;;17.19;69.94;98496.81;4202147;28;20055;-71
2022/08/04 01:24:21;;;;;;;4.97;4.47;;;;;;;17.17;69.95;98496.47;4200212;28;20375;-71
2022/08/04 01:26:43;;;;;;;4.35;3.60;;;;;;;17.09;70.26;98495.78;4200298;28;20495;-71
2022/08/04 01:28:55;;;;;;;8.65;4.40;;;;;;;17.12;70.38;98491.34;4200374;28;20056;-71
2022/08/04 01:31:00;;;;;;;5.72;4.30;;;;;;;17.09;70.08;98492.97;4200033;28;20499;-71
2022/08/04 01:33:03;;;;;;;7.32;4.07;;;;;;;17.07;70.05;98498.19;4202169;28;20059;-71
2022/08/04 01:35:10;;;;;;;10.00;4.15;;;;;;;17.04;70.56;98487.84;4201888;28;20036;-71
2022/08/04 01:37:23;;;;;;;7.65;4.93;;;;;;;17.01;71.28;98493.50;4201646;28;20063;-71
2022/08/04 01:39:41;;;;;;;6.28;4.72;;;;;;;16.96;71.52;98494.75;4201499;28;20044;-71
2022/08/04 01:41:42;;;;;;;6.50;4.88;;;;;;;16.95;71.67;98486.78;4199598;28;20051;-71
2022/08/04 01:43:44;;;;;;;7.00;4.47;;;;;;;16.93;71.81;98480.84;4201210;28;20384;-71
2022/08/04 01:45:50;;;;;;;6.82;4.68;;;;;;;16.90;72.26;98487.28;4202175;28;20036;-71
2022/08/04 01:47:52;;;;;;;10.63;5.07;;;;;;;16.87;72.73;98490.91;4201695;28;20063;-71
2022/08/04 01:49:54;;;;;;;5.18;4.45;;;;;;;16.84;72.70;98495.34;4200328;28;20558;-71
2022/08/04 01:51:55;;;;;;;6.07;5.07;;;;;;;16.80;72.88;98498.19;4201375;28;20379;-71
2022/08/04 01:53:55;;;;;;;6.20;4.80;;;;;;;16.77;72.82;98496.22;4202285;28;20503;-71
2022/08/04 01:55:56;;;;;;;4.68;4.25;;;;;;;16.75;72.84;98493.03;4202389;28;20048;-71
2022/08/04 01:57:59;;;;;;;10.18;5.25;;;;;;;16.72;73.01;98493.91;4201084;28;20713;-71
2022/08/04 02:00:00;;;;;;;5.70;4.75;;;;;;;16.68;73.13;98501.50;4200729;28;20083;-71
2022/08/04 02:02:01;;;;;;;6.07;4.78;;;;;;;16.62;73.47;98491.97;4199960;28;20040;-71
2022/08/04 02:04:01;;;;;;;8.77;4.65;;;;;;;16.61;73.23;98492.41;4202423;28;20093;-72
2022/08/04 02:06:40;;;;;;;6.15;4.75;;;;;;;16.58;73.09;98492.03;4205210;28;20028;-72
2022/08/04 02:08:48;;;;;;;6.15;4.32;;;;;;;16.56;72.70;98488.09;4196596;28;20870;-71
2022/08/04 02:11:10;;;;;;;7.68;4.70;;;;;;;16.57;72.12;98487.66;4204668;28;20040;-71
2022/08/04 02:13:32;;;;;;;6.43;4.23;;;;;;;16.58;71.54;98483.66;4204261;28;20307;-72
2022/08/04 02:15:44;;;;;;;6.13;4.15;;;;;;;16.57;72.43;98489.66;4204632;28;20089;-72
2022/08/04 02:18:06;;;;;;;6.60;4.50;;;;;;;16.53;72.83;98489.69;4204247;28;20476;-72
2022/08/04 02:20:23;;;;;;;7.75;4.45;;;;;;;16.47;73.36;98480.22;4203280;28;20187;-71
2022/08/04 02:22:27;;;;;;;5.47;3.95;;;;;;;16.43;73.75;98475.88;4204313;28;20484;-71
2022/08/04 02:24:30;;;;;;;7.68;4.53;;;;;;;16.40;73.95;98477.50;4203181;28;20040;-71
2022/08/04 02:26:32;;;;;;;8.32;4.10;;;;;;;16.44;72.97;98478.22;4203329;28;20048;-71
2022/08/04 02:28:47;;;;;;;6.47;4.28;;;;;;;16.52;72.21;98479.72;4204702;28;20130;-71
2022/08/04 02:31:12;;;;;;;8.13;4.40;;;;;;;16.50;73.45;98468.19;4203889;28;20048;-72
2022/08/04 02:33:18;;;;;;;10.05;4.90;;;;;;;16.46;73.69;98461.84;4205103;28;20721;-71
2022/08/04 02:35:25;;;;;;;7.68;4.63;;;;;;;16.51;72.91;98477.38;4204268;28;20126;-71
2022/08/04 02:37:31;;;;;;;8.18;4.32;;;;;;;16.50;72.66;98478.56;4204698;28;20430;-71
2022/08/04 02:39:33;;;;;;;6.68;4.25;;;;;;;16.51;73.02;98475.38;4203170;28;20047;-71
2022/08/04 02:41:35;;;;;;;6.07;4.80;;;;;;;16.44;73.49;98475.44;4203065;28;20055;-71
2022/08/04 02:43:37;;;;;;;6.97;3.80;;;;;;;16.38;73.42;98470.72;4204696;28;20071;-71
2022/08/04 02:45:41;;;;;;;4.13;3.72;;;;;;;16.35;72.71;98468.78;4202958;28;20392;-71
2022/08/04 02:47:43;;;;;;;5.97;4.57;;;;;;;16.26;73.94;98463.69;4204621;28;20040;-72
2022/08/04 02:49:45;;;;;;;8.20;5.00;;;;;;;16.22;73.78;98463.75;4202901;28;20471;-71
2022/08/04 02:51:50;;;;;;;4.65;4.22;;;;;;;16.17;73.53;98461.41;4203224;28;20131;-71
2022/08/04 02:53:54;;;;;;;6.88;4.32;;;;;;;16.16;73.35;98459.81;4203943;28;20040;-72
2022/08/04 02:55:57;;;;;;;6.00;4.05;;;;;;;16.11;73.98;98463.06;4205135;28;20036;-71
2022/08/04 02:57:58;;;;;;;8.38;4.82;;;;;;;16.11;75.30;98459.47;4203339;28;20060;-71
2022/08/04 03:00:16;;;;;;;7.55;4.10;;;;;;;16.08;73.34;98461.13;4202848;28;20044;-71
2022/08/04 03:02:35;;;;;;;6.93;4.50;;;;;;;16.06;74.33;98462.75;4203514;28;20139;-71
2022/08/04 03:05:02;;;;;;;8.50;4.53;;;;;;;16.05;73.60;98461.13;4203219;28;20199;-71
2022/08/04 03:07:29;;;;;;;5.28;3.97;;;;;;;16.06;74.42;98459.94;4203426;28;20051;-71
2022/08/04 03:09:37;;;;;;;8.73;3.92;;;;;;;16.02;74.90;98455.19;4202722;28;20109;-71
2022/08/04 03:11:50;;;;;;;7.60;4.45;;;;;;;16.04;74.59;98451.19;4203064;28;20097;-72
2022/08/04 03:14:22;;;;;;;5.80;4.47;;;;;;;16.01;75.07;98455.59;4204242;28;20052;-72
2022/08/04 03:16:47;;;;;;;8.45;4.65;;;;;;;16.03;74.89;98455.97;4203656;28;20036;-72
2022/08/04 03:19:09;;;;;;;8.80;4.47;;;;;;;16.01;75.29;98467.56;4203063;28;20044;-72
2022/08/04 03:21:37;;;;;;;15.68;4.95;;;;;;;15.98;75.85;98462.03;4202332;28;20087;-71
2022/08/04 03:24:00;;;;;;;6.07;4.80;;;;;;;15.91;77.11;98456.50;4203280;28;20056;-71
2022/08/04 03:26:18;;;;;;;7.78;4.85;;;;;;;15.88;76.70;98463.69;4203264;28;20103;-71
2022/08/04 03:28:33;;;;;;;7.35;4.43;;;;;;;15.85;77.27;98458.16;4201428;28;20100;-71
2022/08/04 03:31:07;;;;;;;6.75;4.72;;;;;;;15.83;78.79;98464.16;4203514;28;20056;-71
2022/08/04 03:33:38;;;;;;;7.53;5.07;;;;;;;15.81;78.02;98468.56;4203355;28;20455;-71
2022/08/04 03:36:03;;;;;;;6.70;4.78;;;;;;;15.78;78.55;98461.81;4199057;28;20085;-71
2022/08/04 03:38:22;;;;;;;10.95;5.57;;;;;;;15.72;79.82;98458.69;4202061;28;20139;-72
2022/08/04 03:40:25;;;;;;;6.18;4.38;;;;;;;15.70;79.96;98461.06;4203244;28;20074;-71
2022/08/04 03:42:40;;;;;;;7.80;4.88;;;;;;;15.68;80.31;98465.50;4203065;28;20476;-71
2022/08/04 03:44:53;;;;;;;7.47;5.50;;;;;;;15.67;80.90;98463.91;4202257;28;20053;-72
2022/08/04 03:47:11;;;;;;;5.72;5.07;;;;;;;15.60;80.95;98461.16;4203212;28;20048;-71
2022/08/04 03:49:49;;;;;;;5.50;4.65;;;;;;;15.60;81.06;98461.94;4202464;28;20048;-71
2022/08/04 03:54:43;;;;;;;12.38;6.30;;;;;;;15.56;80.92;98458.41;4202894;28;20059;-71
2022/08/04 03:57:02;;;;;;;11.73;5.07;;;;;;;15.56;80.28;98455.63;4203065;28;20050;-71
2022/08/04 03:59:47;;;;;;;8.30;5.40;;;;;;;15.53;80.55;98464.78;4202587;28;20686;-71
2022/08/04 04:02:08;;;;;;;7.78;5.80;;;;;;;15.54;80.40;98462.78;4151298;28;20100;-71
2022/08/04 04:04:29;;;;;;;12.02;5.85;;;;;;;15.53;80.08;98456.44;4151173;28;20050;-71
2022/08/04 04:06:50;;;;;;;5.78;5.10;;;;;;;15.57;78.88;98457.19;4164436;28;20360;-71
2022/08/04 04:09:22;;;;;;;5.93;4.65;;;;;;;15.59;79.06;98460.38;4202937;28;20434;-71
2022/08/04 04:11:41;;;;;;;9.60;5.70;;;;;;;15.59;79.96;98459.56;4202219;28;20032;-71
2022/08/04 04:14:15;;;;;;;7.05;5.90;;;;;;;15.57;79.83;98460.00;4201334;28;20293;-71
2022/08/04 04:17:02;;;;;;;10.45;5.97;;;;;;;15.64;78.17;98461.97;4202947;28;20468;-71
2022/08/04 04:19:10;;;;;;;9.43;4.68;;;;;;;15.72;77.58;98469.03;4167130;28;20090;-71
2022/08/04 04:21:47;;;;;;;15.73;5.40;;;;;;;15.74;76.47;98463.84;4190088;28;20040;-71
2022/08/04 04:24:01;;;;;;;8.75;4.82;;;;;;;15.79;75.44;98459.81;4202086;28;20059;-71
2022/08/04 04:26:28;;;;;;;5.85;4.50;;;;;;;15.80;75.61;98461.38;4200737;28;20120;-71
2022/08/04 04:28:44;;;;;;;11.27;4.95;;;;;;;15.85;74.62;98460.94;4200406;28;20071;-71
2022/08/04 04:31:22;;;;;;;12.90;5.25;;;;;;;15.86;74.90;98456.94;4202271;28;20048;-71
2022/08/04 04:34:06;;;;;;;12.10;5.53;;;;;;;15.83;75.53;98453.00;4202818;28;20067;-71
2022/08/04 04:36:24;;;;;;;11.45;5.80;;;;;;;15.80;75.67;98464.19;4149639;28;20041;-71
2022/08/04 04:38:43;;;;;;;12.38;5.35;;;;;;;15.82;74.88;98470.94;4199932;28;20118;-71
2022/08/04 04:40:54;;;;;;;10.65;6.05;;;;;;;15.88;75.17;98465.69;4202102;28;20048;-71
2022/08/04 04:43:00;;;;;;;10.25;6.25;;;;;;;15.94;74.93;98469.63;4189116;28;20110;-71
2022/08/04 04:45:31;;;;;;;14.75;5.65;;;;;;;16.01;74.81;98467.56;4200653;28;20132;-71
2022/08/04 04:47:53;;;;;;;9.07;4.55;;;;;;;16.08;74.70;98466.69;4201575;28;20051;-71
2022/08/04 04:49:56;;;;;;;8.95;6.15;;;;;;;16.15;74.93;98463.03;4201624;28;20044;-71
2022/08/04 04:52:08;;;;;;;8.10;5.20;;;;;;;16.23;74.39;98470.13;4199897;28;20527;-71
2022/08/04 04:54:28;;;;;;;10.38;5.97;;;;;;;16.29;73.84;98458.06;4199088;28;20077;-71
2022/08/04 04:56:37;;;;;;;11.43;5.57;;;;;;;16.39;73.88;98467.53;4119638;28;20468;-71
2022/08/04 04:58:38;;;;;;;8.77;5.68;;;;;;;16.49;73.51;98472.19;4198590;28;20044;-71
2022/08/04 05:01:00;;;;;;;12.35;6.22;;;;;;;16.58;72.99;98466.91;4202735;28;20052;-71
2022/08/04 05:03:54;;;;;;;10.10;5.93;;;;;;;16.69;71.91;98457.59;4201579;28;20134;-71
2022/08/04 05:06:23;;;;;;;13.73;5.85;;;;;;;16.83;71.66;98465.81;4187387;28;20048;-71
2022/08/04 05:08:41;;;;;;;11.00;5.90;;;;;;;16.95;71.32;98464.44;4201640;28;20051;-71
2022/08/04 05:11:12;;;;;;;7.00;4.95;;;;;;;17.04;71.24;98473.09;4199321;28;20063;-71
2022/08/04 05:13:36;;;;;;;6.32;4.80;;;;;;;17.18;70.78;98467.28;4201924;28;20090;-71
2022/08/04 05:15:41;;;;;;;7.05;4.75;;;;;;;17.29;70.34;98464.31;4201392;28;20044;-71
2022/08/04 05:17:48;;;;;;;6.10;4.93;;;;;;;17.37;69.69;98463.78;4201646;28;20537;-71
2022/08/04 05:20:04;;;;;;;7.93;5.15;;;;;;;17.50;69.16;98466.00;4200930;28;20070;-71
2022/08/04 05:22:11;;;;;;;8.90;5.53;;;;;;;17.61;69.46;98469.41;4202198;28;20093;-71
2022/08/04 05:24:16;;;;;;;8.15;4.88;;;;;;;17.72;68.61;98458.06;4200342;28;20040;-71
2022/08/04 05:26:22;;;;;;;8.60;4.80;;;;;;;17.84;67.44;98466.63;4202276;28;20389;-71
2022/08/04 05:28:33;;;;;;;6.60;5.20;;;;;;;17.98;67.82;98468.38;4200912;28;20539;-71
2022/08/04 05:30:47;;;;;;;8.52;5.20;;;;;;;18.11;67.70;98472.13;4200839;28;20092;-71
2022/08/04 05:32:56;;;;;;;6.47;4.68;;;;;;;18.20;66.65;98463.16;4201959;28;20373;-71
2022/08/04 05:35:04;;;;;;;6.50;4.80;;;;;;;18.32;66.70;98472.94;4202168;28;20051;-71
2022/08/04 05:37:09;;;;;;;7.20;5.47;;;;;;;18.40;67.80;98466.78;4201286;28;20036;-71
2022/08/04 05:39:14;;;;;;;10.60;4.93;;;;;;;18.48;67.40;98468.22;4202429;28;20093;-72
2022/08/04 05:41:15;;;;;;;8.57;4.85;;;;;;;18.56;67.12;98465.25;4205516;28;20050;-71
2022/08/04 05:43:16;;;;;;;6.57;4.85;;;;;;;18.60;66.48;98469.56;4206081;28;20135;-71
2022/08/04 05:45:18;;;;;;;7.40;5.10;;;;;;;18.71;65.98;98472.19;4205304;28;20040;-71
2022/08/04 05:47:20;;;;;;;9.43;5.18;;;;;;;18.73;65.81;98461.31;4205433;28;20432;-71
2022/08/04 05:49:22;;;;;;;;;;;;;;;18.85;64.91;98466.25;4204312;28;20486;-71
2022/08/04 05:51:24;;;;;;;10.52;4.65;;;;;;;18.94;64.39;98463.66;4205679;28;19920;-71
2022/08/04 05:53:26;;;;;;;7.07;5.13;;;;;;;19.06;64.46;98468.59;4205265;28;20666;-71
2022/08/04 05:55:28;;;;;;;9.27;5.93;;;;;;;19.16;65.08;98472.38;4204321;28;20047;-71
2022/08/04 05:57:29;;;;;;;10.52;6.80;;;;;;;19.24;65.60;98461.78;4203386;28;20047;-71
2022/08/04 05:59:31;;;;;;;7.95;5.97;;;;;;;19.32;64.80;98454.78;4205013;28;20089;-71
2022/08/04 06:01:34;;;;;;;6.07;5.17;;;;;;;19.44;63.55;98470.91;4204301;28;20048;-71
2022/08/04 06:03:36;;;;;;;9.15;5.38;;;;;;;19.50;62.82;98469.16;4204657;28;20040;-71
2022/08/04 06:05:40;;;;;;;7.82;5.60;;;;;;;19.59;62.85;98465.75;4204020;28;20484;-71
2022/08/04 06:07:41;;;;;;;7.03;5.22;;;;;;;19.65;63.03;98466.81;4205113;28;20345;-71
2022/08/04 06:09:42;;;;;;;10.48;5.70;;;;;;;19.78;62.94;98461.28;4204282;28;20036;-71
2022/08/04 06:11:46;;;;;;;9.52;5.47;;;;;;;19.89;62.31;98464.59;4205202;28;20055;-71
2022/08/04 06:13:52;;;;;;;8.70;5.40;;;;;;;20.03;61.08;98463.44;4203943;28;20158;-71
2022/08/04 06:15:55;;;;;;;7.65;5.97;;;;;;;20.14;60.95;98463.94;4204180;28;20098;-71
2022/08/04 06:18:01;;;;;;;13.05;5.90;;;;;;;20.19;60.38;98452.19;4202273;28;20111;-71
2022/08/04 06:20:04;;;;;;;11.82;4.60;;;;;;;20.30;59.24;98463.09;4202535;28;20036;-72
2022/08/04 06:22:06;;;;;;;;;;;;;;;20.41;58.75;98466.41;4204000;28;20442;-72
2022/08/04 06:24:11;;;;;;;8.85;5.63;;;;;;;20.51;60.65;98459.69;4204301;28;19977;-71
2022/08/04 06:26:18;;;;;;;8.32;5.10;;;;;;;20.67;59.65;98459.63;4204540;28;20036;-71
2022/08/04 06:28:19;;;;;;;9.38;5.43;;;;;;;20.82;59.95;98459.22;4204627;28;20024;-71
2022/08/04 06:30:25;;;;;;;13.23;5.45;;;;;;;20.95;58.78;98454.41;4202867;28;20032;-71
2022/08/04 06:32:27;;;;;;;5.78;4.85;;;;;;;21.09;58.69;98453.94;4203072;28;20996;-71
2022/08/04 06:34:29;;;;;;;12.70;4.97;;;;;;;21.22;58.34;98454.75;4202466;28;20039;-71
2022/08/04 06:36:31;;;;;;;11.52;5.03;;;;;;;21.28;57.69;98458.59;4203249;28;20044;-71
2022/08/04 06:38:35;;;;;;;8.73;4.97;;;;;;;21.33;56.89;98462.09;4203332;28;20485;-71
2022/08/04 06:40:35;;;;;;;11.65;4.70;;;;;;;21.43;56.64;98464.56;4203899;28;20047;-71
2022/08/04 06:42:36;;;;;;;12.73;4.65;;;;;;;21.53;56.13;98457.81;4203184;28;20055;-71
2022/08/04 06:44:39;;;;;;;6.22;4.50;;;;;;;21.57;55.86;98452.03;4203710;28;20055;-71
2022/08/04 06:46:40;;;;;;;;;;;;;;;21.65;55.29;98456.19;4203812;28;20040;-72
2022/08/04 06:48:42;;;;;;;9.45;5.10;;;;;;;21.76;56.12;98448.19;4201709;28;19920;-72
2022/08/04 06:50:44;;;;;;;6.82;4.57;;;;;;;21.90;55.67;98448.94;4203023;28;20113;-71
2022/08/04 06:52:45;;;;;;;7.80;4.20;;;;;;;22.01;54.66;98446.50;4203132;28;20415;-71
2022/08/04 06:54:47;;;;;;;9.00;4.50;;;;;;;22.11;54.40;98457.47;4202500;28;20142;-71
2022/08/04 06:56:50;;;;;;;10.73;4.65;;;;;;;22.26;53.80;98446.47;4202897;28;20475;-71
2022/08/04 06:58:52;;;;;;;;;;;;;;;22.42;53.27;98449.09;4203111;28;20177;-71
2022/08/04 07:00:54;;;;;;;9.40;4.15;;;;;;;22.52;52.90;98443.53;4202842;28;19939;-71
2022/08/04 07:02:55;;;;;;;9.25;4.55;;;;;;;22.68;52.91;98449.75;4203214;28;20044;-71
2022/08/04 07:04:55;;;;;;;7.10;4.50;;;;;;;22.85;53.48;98452.38;4203465;28;20507;-71
2022/08/04 07:06:56;;;;;;;7.40;4.75;;;;;;;22.98;53.24;98448.19;4202939;28;20063;-71
2022/08/04 07:08:57;;;;;;;8.32;4.22;;;;;;;23.10;52.27;98443.72;4202674;28;20055;-71
2022/08/04 07:10:58;;;;;;;6.53;4.25;;;;;;;23.14;52.46;98443.56;4202995;28;20047;-71
2022/08/04 07:13:00;;;;;;;12.23;4.30;;;;;;;23.18;52.80;98441.41;4203025;28;20086;-71
2022/08/04 07:15:01;;;;;;;9.20;4.45;;;;;;;23.22;52.41;98437.19;4201752;28;20036;-71
2022/08/04 07:17:04;;;;;;;4.97;3.43;;;;;;;23.25;51.71;98444.72;4203356;28;20051;-71
2022/08/04 07:19:04;;;;;;;10.82;4.72;;;;;;;23.25;51.64;98441.91;4203266;28;20278;-71
2022/08/04 07:21:05;;;;;;;6.78;4.13;;;;;;;23.27;51.91;98447.88;4203049;28;20107;-71
2022/08/04 07:23:06;;;;;;;10.73;4.32;;;;;;;23.37;51.06;98448.69;4202610;28;20043;-71
2022/08/04 07:25:11;;;;;;;9.07;3.67;;;;;;;23.45;50.54;98438.66;4202820;28;20358;-71
2022/08/04 07:27:12;;;;;;;7.30;3.70;;;;;;;23.62;50.30;98438.44;4201072;28;20048;-71
2022/08/04 07:29:13;;;;;;;8.27;4.00;;;;;;;23.82;49.91;98442.38;4199999;28;20036;-71
2022/08/04 07:31:18;;;;;;;5.45;3.78;;;;;;;23.96;48.98;98437.38;4162588;28;1123604;-71
2022/08/04 07:33:20;;;;;;;8.13;3.95;;;;;;;24.13;48.50;98432.97;4198408;28;20174;-71
2022/08/04 07:35:22;;;;;;;10.73;3.92;;;;;;;24.29;48.43;98446.03;4195699;28;20044;-71
2022/08/04 07:37:23;;;;;;;7.03;3.70;;;;;;;24.42;47.33;98431.75;4200181;28;20102;-71
2022/08/04 07:39:25;;;;;;;4.45;3.42;;;;;;;24.62;46.05;98435.63;4200701;28;20051;-71
2022/08/04 07:41:26;;;;;;;5.32;3.20;;;;;;;24.79;46.22;98438.13;4203607;28;20426;-71
2022/08/04 07:43:26;;;;;;;4.88;3.65;;;;;;;24.97;45.65;98435.22;4203465;28;20500;-71
2022/08/04 07:45:27;;;;;;;5.18;3.35;;;;;;;25.13;46.12;98437.72;4202718;28;20044;-71
2022/08/04 07:47:28;;;;;;;5.20;3.30;;;;;;;25.37;45.70;98434.94;4202914;28;20051;-71
2022/08/04 07:49:29;;;;;;;4.60;2.95;;;;;;;25.58;44.81;98432.34;4201213;28;20437;-71
2022/08/04 07:51:30;;;;;;;7.05;3.15;;;;;;;25.84;43.45;98424.94;4200770;28;20067;-71
2022/08/04 07:53:32;;;;;;;4.22;2.97;;;;;;;25.95;42.46;98428.00;4202160;28;20067;-71
2022/08/04 07:55:33;;;;;;;3.45;2.58;;;;;;;26.16;41.63;98416.84;4203071;28;20383;-71
2022/08/04 07:57:33;;;;;;;4.45;2.80;;;;;;;26.27;41.43;98423.50;4202883;28;20040;-72
2022/08/04 07:59:34;;;;;;;5.35;3.17;;;;;;;26.43;41.79;98427.97;4202232;28;20046;-72
2022/08/04 08:01:36;;;;;;;6.97;2.88;;;;;;;26.58;40.88;98414.56;4198729;28;20048;-72
2022/08/04 08:03:38;;;;;;;5.35;2.53;;;;;;;26.68;40.28;98423.00;4201196;28;20051;-72
2022/08/04 08:05:38;;;;;;;12.10;3.30;;;;;;;26.80;40.36;98419.84;4201010;28;20540;-72
2022/08/04 08:07:39;;;;;;;4.85;2.80;;;;;;;26.89;40.55;98424.63;4202022;28;20125;-72
2022/08/04 08:09:39;;;;;;;6.50;2.92;;;;;;;26.95;39.92;98419.84;4200995;28;20105;-72
2022/08/04 08:11:42;;;;;;;5.45;3.03;;;;;;;27.06;39.99;98411.56;4200939;28;20052;-72
2022/08/04 08:13:44;;;;;;;3.50;2.38;;;;;;;27.24;39.31;98418.28;4202797;28;20109;-71
2022/08/04 08:15:45;;;;;;;5.15;2.47;;;;;;;27.40;38.56;98412.84;4203121;28;20036;-72
2022/08/04 08:17:46;;;;;;;4.35;2.70;;;;;;;27.56;37.99;98408.69;4202499;28;20101;-72
2022/08/04 08:19:46;;;;;;;2.97;2.42;;;;;;;27.66;38.15;98407.28;4200882;28;20044;-72
2022/08/04 08:21:50;;;;;;;3.58;2.20;;;;;;;27.93;37.01;98406.09;4200561;28;20056;-72
2022/08/04 08:23:51;;;;;;;4.32;2.40;;;;;;;28.20;37.11;98404.06;4194993;28;20507;-72
2022/08/04 08:25:51;;;;;;;2.53;2.10;;;;;;;28.34;36.18;98405.28;4196523;28;20256;-72
2022/08/04 08:27:52;;;;;;;5.15;2.08;;;;;;;28.37;36.29;98407.91;4200281;28;20059;-72
2022/08/04 08:29:53;;;;;;;9.38;2.47;;;;;;;28.40;34.80;98409.75;4202040;28;20040;-72
2022/08/04 08:31:54;;;;;;;4.80;2.42;;;;;;;28.58;34.60;98400.09;4196725;28;20048;-72
2022/08/04 08:33:55;;;;;;;5.75;2.10;;;;;;;28.60;33.73;98393.91;4191256;28;20067;-72
2022/08/04 08:36:33;;;;;;;4.75;2.05;;;;;;;28.67;34.51;98394.25;4200038;28;20052;-72
2022/08/04 08:38:48;;;;;;;5.40;2.50;;;;;;;28.87;34.51;98392.59;4195676;28;20109;-72
2022/08/04 08:41:05;;;;;;;6.57;2.17;;;;;;;28.94;35.21;98401.47;4198997;28;20047;-72
2022/08/04 08:43:24;;;;;;;6.47;2.15;;;;;;;29.10;33.81;98400.84;4201812;28;20038;-72
2022/08/04 08:45:36;;;;;;;2.42;1.80;;;;;;;29.24;33.92;98393.44;4202485;28;20052;-72
2022/08/04 08:47:55;;;;;;;5.50;2.10;;;;;;;29.31;33.46;98400.75;4198091;28;20429;-72
2022/08/04 08:50:17;;;;;;;3.90;1.98;;;;;;;29.51;32.26;98399.84;4198822;28;20059;-72
2022/08/04 08:52:46;;;;;;;3.58;1.85;;;;;;;29.93;31.60;98401.88;4199754;28;20048;-72
2022/08/04 08:55:12;;;;;;;3.22;2.08;;;;;;;30.07;31.24;98394.41;4199687;28;20040;-72
2022/08/04 08:57:45;;;;;;;3.88;1.40;;;;;;;30.19;30.42;98396.81;4198769;28;20066;-72
2022/08/04 09:00:01;;;;;;;2.38;1.80;;;;;;;30.39;29.56;98392.97;4197624;28;20036;-72
2022/08/04 09:02:21;;;;;;;2.53;1.48;;;;;;;30.50;31.13;98383.66;4198446;28;20036;-72
2022/08/04 09:04:43;;;;;;;2.17;1.67;;;;;;;30.29;30.69;98388.81;4201658;28;20208;-72
2022/08/04 09:06:57;;;;;;;4.47;1.83;;;;;;;30.31;30.22;98383.34;4200307;28;20070;-72
2022/08/04 09:09:09;;;;;;;4.07;1.35;;;;;;;30.45;30.16;98395.81;4201380;28;20040;-72
2022/08/04 09:11:17;;;;;;;3.05;1.60;;;;;;;30.41;30.74;98392.47;4203126;28;20051;-72
2022/08/04 09:13:31;;;;;;;3.05;1.58;;;;;;;30.59;29.93;98385.47;4198347;28;20056;-72
2022/08/04 09:15:40;;;;;;;3.38;1.45;;;;;;;30.75;30.28;98384.75;4199702;28;20036;-72
2022/08/04 09:18:04;;;;;;;2.75;1.42;;;;;;;31.00;29.44;98382.94;4199811;28;20048;-72
2022/08/04 09:20:11;;;;;;;2.00;1.38;;;;;;;31.12;29.03;98384.50;4199197;28;20105;-72
2022/08/04 09:22:34;;;;;;;2.53;1.40;;;;;;;31.25;28.00;98383.97;4196916;28;20115;-72
2022/08/04 09:24:44;;;;;;;1.30;1.20;;;;;;;31.36;28.23;98377.44;4197071;28;20146;-72
2022/08/04 09:27:01;;;;;;;2.75;1.40;;;;;;;31.54;28.63;98380.53;4196453;28;20762;-72
2022/08/04 09:29:12;;;;;;;3.80;1.67;;;;;;;31.63;27.36;98385.19;4198095;28;20546;-72
2022/08/04 09:31:15;;;;;;;3.65;1.60;;;;;;;31.74;27.66;98376.56;4198265;28;20057;-72
2022/08/04 09:33:37;;;;;;;1.58;1.42;;;;;;;31.91;27.84;98385.13;4199425;28;20090;-72
2022/08/04 09:35:46;;;;;;;2.30;1.50;;;;;;;32.08;27.04;98376.44;4198056;28;20049;-72
2022/08/04 09:38:13;;;;;;;1.70;1.48;;;;;;;32.21;26.59;98384.47;4193108;28;20654;-72
2022/08/04 09:40:22;;;;;;;4.30;1.63;;;;;;;32.27;25.84;98377.38;4195228;28;20044;-72
2022/08/04 09:42:48;;;;;;;2.97;1.70;;;;;;;32.36;26.58;98376.34;4200226;28;20330;-72
2022/08/04 09:45:02;;;;;;;2.63;1.50;;;;;;;32.46;26.66;98382.53;4189781;28;20501;-72
2022/08/04 09:47:34;;;;;;;1.95;1.60;;;;;;;32.43;26.53;98382.25;4198849;28;20442;-72
2022/08/04 09:49:46;;;;;;;2.85;1.60;;;;;;;32.46;25.74;98380.44;4196761;28;20044;-73
2022/08/04 09:51:52;;;;;;;1.88;1.50;;;;;;;32.45;25.87;98376.03;4196450;28;20093;-73
2022/08/04 09:54:01;;;;;;;3.78;1.65;;;;;;;32.43;26.44;98365.06;4197046;28;20051;-73
2022/08/04 09:56:08;;;;;;;3.85;1.73;;;;;;;32.40;26.35;98376.81;4199702;28;20439;-73
2022/08/04 09:58:32;;;;;;;1.48;1.38;;;;;;;32.19;26.89;98373.56;4199260;28;20033;-73
2022/08/04 10:00:44;;;;;;;2.90;1.70;;;;;;;32.21;27.50;98376.66;4196362;28;20545;-73
2022/08/04 10:02:59;;;;;;;2.67;1.77;;;;;;;32.19;27.43;98372.75;4193451;28;20060;-73
2022/08/04 10:05:04;;;;;;;2.17;1.58;;;;;;;31.90;27.49;98359.91;4192057;28;20456;-72
2022/08/04 10:07:29;;;;;;;2.17;1.52;;;;;;;31.99;27.30;98371.03;4190852;28;20488;-73
2022/08/04 10:09:58;;;;;;;2.72;1.75;;;;;;;32.11;27.03;98366.84;4191960;28;20044;-72
2022/08/04 10:12:23;;;;;;;4.00;2.00;;;;;;;32.17;28.08;98383.94;4199782;28;20360;-72
2022/08/04 10:14:39;;;;;;;3.40;2.00;;;;;;;32.20;27.15;98368.59;4198585;28;20135;-72
2022/08/04 10:16:58;;;;;;;2.92;1.70;;;;;;;31.88;27.30;98368.25;4197527;28;20535;-73
2022/08/04 10:19:19;;;;;;;5.63;1.70;;;;;;;32.03;27.74;98362.97;4198391;28;20261;-73